sensor_id;sensor_type;location;lat;lon;timestamp;pressure;altitude;pressure_sealevel;temperature;humidity
11085;BME280;5596;46.826;8.650;2023-05-25T00:00:16;96257.78;;;11.79;100.00
11085;BME280;5596;46.826;8.650;2023-05-25T00:02:43;96253.81;;;11.82;100.00
11085;BME280;5596;46.826;8.650;2023-05-25T00:05:12;96256.00;;;11.85;100.00
11085;BME280;5596;46.826;8.650;2023-05-25T00:07:39;96259.66;;;11.90;100.00
11085;BME280;5596;46.826;8.650;2023-05-25T00:10:06;96251.63;;;11.95;100.00
11085;BME280;5596;46.826;8.650;2023-05-25T00:12:33;96259.50;;;11.97;100.00
11085;BME280;5596;46.826;8.650;2023-05-25T00:15:01;96251.16;;;11.98;100.00
11085;BME280;5596;46.826;8.650;2023-05-25T00:17:28;96256.66;;;12.03;100.00
11085;BME280;5596;46.826;8.650;2023-05-25T00:19:56;96252.75;;;11.99;100.00
11085;BME280;5596;46.826;8.650;2023-05-25T00:22:28;96248.75;;;12.02;100.00
11085;BME280;5596;46.826;8.650;2023-05-25T00:24:54;96251.16;;;11.98;100.00
11085;BME280;5596;46.826;8.650;2023-05-25T00:27:21;96243.13;;;12.03;100.00
11085;BME280;5596;46.826;8.650;2023-05-25T00:29:49;96251.59;;;12.07;100.00
11085;BME280;5596;46.826;8.650;2023-05-25T00:32:17;96249.59;;;12.02;100.00
11085;BME280;5596;46.826;8.650;2023-05-25T00:34:45;96250.88;;;12.00;100.00
11085;BME280;5596;46.826;8.650;2023-05-25T00:37:12;96251.63;;;11.95;100.00
11085;BME280;5596;46.826;8.650;2023-05-25T00:39:40;96246.22;;;11.95;100.00
11085;BME280;5596;46.826;8.650;2023-05-25T00:42:07;96245.75;;;11.98;100.00
11085;BME280;5596;46.826;8.650;2023-05-25T00:44:34;96241.94;;;11.99;100.00
11085;BME280;5596;46.826;8.650;2023-05-25T00:47:00;96247.28;;;11.94;100.00
11085;BME280;5596;46.826;8.650;2023-05-25T00:49:29;96242.91;;;11.93;100.00
11085;BME280;5596;46.826;8.650;2023-05-25T00:51:56;96247.34;;;11.99;100.00
11085;BME280;5596;46.826;8.650;2023-05-25T00:54:23;96241.22;;;12.04;100.00
11085;BME280;5596;46.826;8.650;2023-05-25T00:56:54;96238.06;;;12.07;100.00
11085;BME280;5596;46.826;8.650;2023-05-25T00:59:23;96244.75;;;12.04;100.00
11085;BME280;5596;46.826;8.650;2023-05-25T01:01:52;96246.41;;;12.05;100.00
11085;BME280;5596;46.826;8.650;2023-05-25T01:04:19;96241.16;;;11.99;100.00
11085;BME280;5596;46.826;8.650;2023-05-25T01:06:47;96241.28;;;11.92;100.00
11085;BME280;5596;46.826;8.650;2023-05-25T01:09:15;96248.25;;;11.88;100.00
11085;BME280;5596;46.826;8.650;2023-05-25T01:11:43;96244.13;;;11.86;100.00
11085;BME280;5596;46.826;8.650;2023-05-25T01:14:12;96236.47;;;11.83;100.00
11085;BME280;5596;46.826;8.650;2023-05-25T01:16:39;96248.84;;;11.79;100.00
11085;BME280;5596;46.826;8.650;2023-05-25T01:19:06;96239.91;;;11.78;100.00
11085;BME280;5596;46.826;8.650;2023-05-25T01:21:38;96237.91;;;11.73;100.00
11085;BME280;5596;46.826;8.650;2023-05-25T01:24:10;96234.63;;;11.71;100.00
11085;BME280;5596;46.826;8.650;2023-05-25T01:26:40;96234.16;;;11.74;100.00
11085;BME280;5596;46.826;8.650;2023-05-25T01:29:07;96230.28;;;11.82;100.00
11085;BME280;5596;46.826;8.650;2023-05-25T01:31:36;96234.72;;;11.88;100.00
11085;BME280;5596;46.826;8.650;2023-05-25T01:34:04;96234.22;;;11.91;100.00
11085;BME280;5596;46.826;8.650;2023-05-25T01:36:31;96238.84;;;11.91;100.00
11085;BME280;5596;46.826;8.650;2023-05-25T01:39:02;96238.94;;;11.84;100.00
11085;BME280;5596;46.826;8.650;2023-05-25T01:41:34;96235.78;;;11.87;100.00
11085;BME280;5596;46.826;8.650;2023-05-25T01:44:01;96238.84;;;11.91;100.00
11085;BME280;5596;46.826;8.650;2023-05-25T01:46:30;96238.69;;;11.97;100.00
11085;BME280;5596;46.826;8.650;2023-05-25T01:49:01;96241.94;;;11.99;100.00
11085;BME280;5596;46.826;8.650;2023-05-25T01:51:35;96237.94;;;12.02;100.00
11085;BME280;5596;46.826;8.650;2023-05-25T01:54:06;96235.25;;;12.02;100.00
11085;BME280;5596;46.826;8.650;2023-05-25T01:56:34;96239.16;;;11.94;100.00
11085;BME280;5596;46.826;8.650;2023-05-25T01:59:01;96233.75;;;11.94;100.00
11085;BME280;5596;46.826;8.650;2023-05-25T02:01:30;96236.69;;;11.93;100.00
11085;BME280;5596;46.826;8.650;2023-05-25T02:03:58;96235.31;;;11.90;100.00
11085;BME280;5596;46.826;8.650;2023-05-25T02:06:26;96233.53;;;11.84;100.00
11085;BME280;5596;46.826;8.650;2023-05-25T02:08:53;96238.47;;;11.87;100.00
11085;BME280;5596;46.826;8.650;2023-05-25T02:11:21;96231.41;;;11.86;100.00
11085;BME280;5596;46.826;8.650;2023-05-25T02:13:48;96231.56;;;11.80;100.00
11085;BME280;5596;46.826;8.650;2023-05-25T02:16:14;96222.88;;;11.78;100.00
11085;BME280;5596;46.826;8.650;2023-05-25T02:18:44;96227.81;;;11.81;100.00
11085;BME280;5596;46.826;8.650;2023-05-25T02:21:10;96219.19;;;11.84;100.00
11085;BME280;5596;46.826;8.650;2023-05-25T02:23:37;96214.59;;;11.84;100.00
11085;BME280;5596;46.826;8.650;2023-05-25T02:26:05;96215.19;;;11.86;100.00
11085;BME280;5596;46.826;8.650;2023-05-25T02:28:34;96220.13;;;11.89;100.00
11085;BME280;5596;46.826;8.650;2023-05-25T02:31:00;96213.06;;;11.88;100.00
11085;BME280;5596;46.826;8.650;2023-05-25T02:33:27;96213.06;;;11.88;100.00
11085;BME280;5596;46.826;8.650;2023-05-25T02:35:56;96214.94;;;11.88;100.00
11085;BME280;5596;46.826;8.650;2023-05-25T02:38:22;96214.72;;;11.89;100.00
11085;BME280;5596;46.826;8.650;2023-05-25T02:40:49;96220.13;;;11.89;100.00
11085;BME280;5596;46.826;8.650;2023-05-25T02:43:18;96220.00;;;11.84;100.00
11085;BME280;5596;46.826;8.650;2023-05-25T02:45:47;96213.47;;;11.80;100.00
11085;BME280;5596;46.826;8.650;2023-05-25T02:48:15;96218.63;;;11.82;100.00
11085;BME280;5596;46.826;8.650;2023-05-25T02:50:42;96219.69;;;11.81;100.00
11085;BME280;5596;46.826;8.650;2023-05-25T02:53:12;96222.88;;;11.78;100.00
11085;BME280;5596;46.826;8.650;2023-05-25T02:55:39;96213.09;;;11.77;100.00
11085;BME280;5596;46.826;8.650;2023-05-25T02:58:10;96217.06;;;11.74;100.00
11085;BME280;5596;46.826;8.650;2023-05-25T03:00:57;96216.75;;;11.70;100.00
11085;BME280;5596;46.826;8.650;2023-05-25T03:03:25;96207.81;;;11.70;100.00
11085;BME280;5596;46.826;8.650;2023-05-25T03:05:51;96218.41;;;11.71;100.00
11085;BME280;5596;46.826;8.650;2023-05-25T03:08:18;96216.03;;;11.75;100.00
11085;BME280;5596;46.826;8.650;2023-05-25T03:10:46;96216.63;;;11.77;100.00
11085;BME280;5596;46.826;8.650;2023-05-25T03:13:13;96218.75;;;11.75;100.00
11085;BME280;5596;46.826;8.650;2023-05-25T03:15:39;96219.78;;;11.74;100.00
11085;BME280;5596;46.826;8.650;2023-05-25T03:18:08;96221.94;;;11.72;100.00
11085;BME280;5596;46.826;8.650;2023-05-25T03:20:37;96216.03;;;11.75;100.00
11085;BME280;5596;46.826;8.650;2023-05-25T03:23:05;96217.69;;;11.76;100.00
11085;BME280;5596;46.826;8.650;2023-05-25T03:25:33;96217.69;;;11.76;100.00
11085;BME280;5596;46.826;8.650;2023-05-25T03:28:01;96215.00;;;11.76;100.00
11085;BME280;5596;46.826;8.650;2023-05-25T03:30:28;96225.81;;;11.76;100.00
11085;BME280;5596;46.826;8.650;2023-05-25T03:32:56;96220.63;;;11.74;100.00
11085;BME280;5596;46.826;8.650;2023-05-25T03:35:26;96217.06;;;11.74;100.00
11085;BME280;5596;46.826;8.650;2023-05-25T03:37:54;96222.47;;;11.74;100.00
11085;BME280;5596;46.826;8.650;2023-05-25T03:40:20;96208.75;;;11.75;100.00
11085;BME280;5596;46.826;8.650;2023-05-25T03:42:48;96216.97;;;11.69;100.00
11085;BME280;5596;46.826;8.650;2023-05-25T03:45:15;96227.72;;;11.64;100.00
11085;BME280;5596;46.826;8.650;2023-05-25T03:47:42;96215.94;;;11.58;100.00
11085;BME280;5596;46.826;8.650;2023-05-25T03:50:10;96230.44;;;11.52;100.00
11085;BME280;5596;46.826;8.650;2023-05-25T03:52:38;96230.09;;;11.49;100.00
11085;BME280;5596;46.826;8.650;2023-05-25T03:55:05;96233.97;;;11.53;100.00
11085;BME280;5596;46.826;8.650;2023-05-25T03:57:32;96225.72;;;11.59;100.00
11085;BME280;5596;46.826;8.650;2023-05-25T03:59:59;96230.66;;;11.62;100.00
11085;BME280;5596;46.826;8.650;2023-05-25T04:02:25;96231.47;;;11.63;100.00
11085;BME280;5596;46.826;8.650;2023-05-25T04:04:53;96229.75;;;11.57;100.00
11085;BME280;5596;46.826;8.650;2023-05-25T04:07:21;96245.84;;;11.52;100.00
11085;BME280;5596;46.826;8.650;2023-05-25T04:09:49;96251.00;;;11.53;100.00
11085;BME280;5596;46.826;8.650;2023-05-25T04:12:16;96250.53;;;11.56;100.00
11085;BME280;5596;46.826;8.650;2023-05-25T04:14:43;96255.97;;;11.56;100.00
11085;BME280;5596;46.826;8.650;2023-05-25T04:17:10;96262.19;;;11.57;100.00
11085;BME280;5596;46.826;8.650;2023-05-25T04:19:37;96260.53;;;11.56;100.00
11085;BME280;5596;46.826;8.650;2023-05-25T04:22:04;96260.53;;;11.56;100.00
11085;BME280;5596;46.826;8.650;2023-05-25T04:24:31;96254.53;;;11.54;100.00
11085;BME280;5596;46.826;8.650;2023-05-25T04:27:00;96271.81;;;11.53;100.00
11085;BME280;5596;46.826;8.650;2023-05-25T04:29:27;96262.66;;;11.54;100.00
11085;BME280;5596;46.826;8.650;2023-05-25T04:31:59;96264.06;;;11.56;100.00
11085;BME280;5596;46.826;8.650;2023-05-25T04:34:26;96269.72;;;11.55;100.00
11085;BME280;5596;46.826;8.650;2023-05-25T04:37:02;96271.09;;;11.57;100.00
11085;BME280;5596;46.826;8.650;2023-05-25T04:39:30;96264.41;;;11.60;100.00
11085;BME280;5596;46.826;8.650;2023-05-25T04:41:57;96267.69;;;11.62;100.00
11085;BME280;5596;46.826;8.650;2023-05-25T04:44:27;96276.94;;;11.66;100.00
11085;BME280;5596;46.826;8.650;2023-05-25T04:46:54;96270.47;;;11.67;100.00
11085;BME280;5596;46.826;8.650;2023-05-25T04:49:30;96273.56;;;11.70;100.00
11085;BME280;5596;46.826;8.650;2023-05-25T04:51:57;96278.13;;;11.70;100.00
11085;BME280;5596;46.826;8.650;2023-05-25T04:54:26;96284.00;;;11.67;100.00
11085;BME280;5596;46.826;8.650;2023-05-25T04:56:56;96286.94;;;11.65;100.00
11085;BME280;5596;46.826;8.650;2023-05-25T04:59:23;96291.78;;;11.63;100.00
11085;BME280;5596;46.826;8.650;2023-05-25T05:01:51;96299.41;;;11.66;100.00
11085;BME280;5596;46.826;8.650;2023-05-25T05:04:18;96299.19;;;11.68;100.00
11085;BME280;5596;46.826;8.650;2023-05-25T05:06:46;96305.19;;;11.70;100.00
11085;BME280;5596;46.826;8.650;2023-05-25T05:09:17;96304.94;;;11.71;100.00
11085;BME280;5596;46.826;8.650;2023-05-25T05:11:45;96311.19;;;11.72;100.00
11085;BME280;5596;46.826;8.650;2023-05-25T05:14:12;96309.53;;;11.71;100.00
11085;BME280;5596;46.826;8.650;2023-05-25T05:16:42;96308.25;;;11.73;100.00
11085;BME280;5596;46.826;8.650;2023-05-25T05:19:10;96309.31;;;11.72;100.00
11085;BME280;5596;46.826;8.650;2023-05-25T05:21:37;96309.53;;;11.71;100.00
11085;BME280;5596;46.826;8.650;2023-05-25T05:24:05;96315.53;;;11.73;100.00
11085;BME280;5596;46.826;8.650;2023-05-25T05:26:32;96319.84;;;11.74;100.00
11085;BME280;5596;46.826;8.650;2023-05-25T05:28:59;96333.06;;;11.70;100.00
11085;BME280;5596;46.826;8.650;2023-05-25T05:31:27;96333.88;;;11.71;100.00
11085;BME280;5596;46.826;8.650;2023-05-25T05:33:56;96345.28;;;11.73;100.00
11085;BME280;5596;46.826;8.650;2023-05-25T05:36:24;96344.47;;;11.72;100.00
11085;BME280;5596;46.826;8.650;2023-05-25T05:38:55;96340.25;;;11.77;100.00
11085;BME280;5596;46.826;8.650;2023-05-25T05:41:22;96348.94;;;11.79;100.00
11085;BME280;5596;46.826;8.650;2023-05-25T05:43:49;96345.50;;;11.83;100.00
11085;BME280;5596;46.826;8.650;2023-05-25T05:46:16;96361.66;;;11.90;100.00
11085;BME280;5596;46.826;8.650;2023-05-25T05:48:43;96361.97;;;11.93;100.00
11085;BME280;5596;46.826;8.650;2023-05-25T05:51:10;96356.09;;;11.96;100.00
11085;BME280;5596;46.826;8.650;2023-05-25T05:53:38;96356.09;;;11.96;100.00
11085;BME280;5596;46.826;8.650;2023-05-25T05:56:05;96366.91;;;11.96;100.00
11085;BME280;5596;46.826;8.650;2023-05-25T05:58:32;96366.09;;;11.96;100.00
11085;BME280;5596;46.826;8.650;2023-05-25T06:00:59;96364.22;;;11.96;100.00
11085;BME280;5596;46.826;8.650;2023-05-25T06:03:26;96371.84;;;11.99;100.00
11085;BME280;5596;46.826;8.650;2023-05-25T06:05:53;96371.13;;;12.04;100.00
11085;BME280;5596;46.826;8.650;2023-05-25T06:08:20;96378.34;;;11.98;100.00
11085;BME280;5596;46.826;8.650;2023-05-25T06:10:48;96372.19;;;12.03;100.00
11085;BME280;5596;46.826;8.650;2023-05-25T06:13:15;96379.25;;;12.04;100.00
11085;BME280;5596;46.826;8.650;2023-05-25T06:15:42;96375.34;;;12.11;100.00
11085;BME280;5596;46.826;8.650;2023-05-25T06:18:14;96371.69;;;12.18;100.00
11085;BME280;5596;46.826;8.650;2023-05-25T06:20:41;96379.56;;;12.19;100.00
11085;BME280;5596;46.826;8.650;2023-05-25T06:23:08;96385.56;;;12.21;100.00
11085;BME280;5596;46.826;8.650;2023-05-25T06:25:38;96385.81;;;12.20;100.00
11085;BME280;5596;46.826;8.650;2023-05-25T06:28:06;96393.78;;;12.26;100.00
11085;BME280;5596;46.826;8.650;2023-05-25T06:30:33;96390.59;;;12.29;100.00
11085;BME280;5596;46.826;8.650;2023-05-25T06:33:01;96385.28;;;12.34;100.00
11085;BME280;5596;46.826;8.650;2023-05-25T06:35:28;96390.84;;;12.28;100.00
11085;BME280;5596;46.826;8.650;2023-05-25T06:37:55;96387.91;;;12.29;100.00
11085;BME280;5596;46.826;8.650;2023-05-25T06:40:22;96386.94;;;12.35;100.00
11085;BME280;5596;46.826;8.650;2023-05-25T06:42:49;96383.09;;;12.20;100.00
11085;BME280;5596;46.826;8.650;2023-05-25T06:45:36;96381.94;;;12.16;100.00
11085;BME280;5596;46.826;8.650;2023-05-25T06:48:03;96387.53;;;12.26;100.00
11085;BME280;5596;46.826;8.650;2023-05-25T06:50:31;96389.88;;;12.34;100.00
11085;BME280;5596;46.826;8.650;2023-05-25T06:52:58;96384.97;;;12.31;100.00
11085;BME280;5596;46.826;8.650;2023-05-25T06:55:25;96386.59;;;12.32;100.00
11085;BME280;5596;46.826;8.650;2023-05-25T06:57:52;96374.81;;;12.38;100.00
11085;BME280;5596;46.826;8.650;2023-05-25T07:00:19;96380.22;;;12.38;100.00
11085;BME280;5596;46.826;8.650;2023-05-25T07:02:48;96372.00;;;12.33;100.00
11085;BME280;5596;46.826;8.650;2023-05-25T07:05:14;96367.28;;;12.40;100.00
11085;BME280;5596;46.826;8.650;2023-05-25T07:07:42;96356.38;;;12.51;100.00
11085;BME280;5596;46.826;8.650;2023-05-25T07:10:09;96354.59;;;12.57;100.00
11085;BME280;5596;46.826;8.650;2023-05-25T07:12:36;96350.09;;;12.63;100.00
11085;BME280;5596;46.826;8.650;2023-05-25T07:15:03;96352.16;;;12.72;100.00
11085;BME280;5596;46.826;8.650;2023-05-25T07:17:30;96353.91;;;12.78;100.00
11085;BME280;5596;46.826;8.650;2023-05-25T07:19:58;96339.47;;;12.89;100.00
11085;BME280;5596;46.826;8.650;2023-05-25T07:22:25;96340.59;;;12.94;100.00
11085;BME280;5596;46.826;8.650;2023-05-25T07:24:52;96323.38;;;13.00;100.00
11085;BME280;5596;46.826;8.650;2023-05-25T07:27:19;96328.97;;;13.10;100.00
11085;BME280;5596;46.826;8.650;2023-05-25T07:29:45;96331.03;;;13.19;100.00
11085;BME280;5596;46.826;8.650;2023-05-25T07:32:12;96332.44;;;13.39;100.00
11085;BME280;5596;46.826;8.650;2023-05-25T07:34:39;96337.84;;;13.39;100.00
11085;BME280;5596;46.826;8.650;2023-05-25T07:37:08;96330.06;;;13.42;100.00
11085;BME280;5596;46.826;8.650;2023-05-25T07:39:35;96337.13;;;13.43;100.00
11085;BME280;5596;46.826;8.650;2023-05-25T07:42:02;96341.75;;;13.64;100.00
11085;BME280;5596;46.826;8.650;2023-05-25T07:44:30;96345.00;;;13.83;100.00
11085;BME280;5596;46.826;8.650;2023-05-25T07:46:56;96354.00;;;14.06;100.00
11085;BME280;5596;46.826;8.650;2023-05-25T07:49:23;96367.66;;;14.11;100.00
11085;BME280;5596;46.826;8.650;2023-05-25T07:51:50;96370.53;;;14.04;100.00
11085;BME280;5596;46.826;8.650;2023-05-25T07:54:18;96367.56;;;14.06;100.00
11085;BME280;5596;46.826;8.650;2023-05-25T07:56:45;96368.97;;;14.08;100.00
11085;BME280;5596;46.826;8.650;2023-05-25T07:59:12;96382.47;;;14.03;100.00
11085;BME280;5596;46.826;8.650;2023-05-25T08:01:39;96372.06;;;13.95;100.00
11085;BME280;5596;46.826;8.650;2023-05-25T08:04:06;96381.31;;;13.99;100.00
11085;BME280;5596;46.826;8.650;2023-05-25T08:06:33;96375.56;;;13.95;100.00
11085;BME280;5596;46.826;8.650;2023-05-25T08:08:59;96382.19;;;13.83;100.00
11085;BME280;5596;46.826;8.650;2023-05-25T08:11:27;96384.16;;;13.71;100.00
11085;BME280;5596;46.826;8.650;2023-05-25T08:13:55;96385.75;;;13.67;100.00
11085;BME280;5596;46.826;8.650;2023-05-25T08:16:22;96386.06;;;13.70;100.00
11085;BME280;5596;46.826;8.650;2023-05-25T08:18:48;96397.50;;;13.72;100.00
11085;BME280;5596;46.826;8.650;2023-05-25T08:21:16;96388.28;;;13.73;100.00
11085;BME280;5596;46.826;8.650;2023-05-25T08:23:42;96392.41;;;13.76;100.00
11085;BME280;5596;46.826;8.650;2023-05-25T08:26:09;96397.75;;;13.71;100.00
11085;BME280;5596;46.826;8.650;2023-05-25T08:28:38;96403.75;;;13.73;100.00
11085;BME280;5596;46.826;8.650;2023-05-25T08:31:05;96414.91;;;13.93;100.00
11085;BME280;5596;46.826;8.650;2023-05-25T08:33:32;96423.75;;;14.05;100.00
11085;BME280;5596;46.826;8.650;2023-05-25T08:35:59;96423.75;;;14.05;100.00
11085;BME280;5596;46.826;8.650;2023-05-25T08:38:25;96426.47;;;14.05;100.00
11085;BME280;5596;46.826;8.650;2023-05-25T08:40:58;96441.25;;;14.14;100.00
11085;BME280;5596;46.826;8.650;2023-05-25T08:43:28;96428.06;;;14.23;100.00
11085;BME280;5596;46.826;8.650;2023-05-25T08:45:58;96431.03;;;14.21;100.00
11085;BME280;5596;46.826;8.650;2023-05-25T08:48:28;96442.66;;;14.17;100.00
11085;BME280;5596;46.826;8.650;2023-05-25T08:50:55;96444.56;;;14.16;100.00
11085;BME280;5596;46.826;8.650;2023-05-25T08:53:24;96440.78;;;14.17;100.00
11085;BME280;5596;46.826;8.650;2023-05-25T08:55:52;96437.97;;;14.29;100.00
11085;BME280;5596;46.826;8.650;2023-05-25T08:58:21;96450.53;;;14.35;100.00
11085;BME280;5596;46.826;8.650;2023-05-25T09:00:49;96458.84;;;14.45;100.00
11085;BME280;5596;46.826;8.650;2023-05-25T09:03:21;96456.31;;;14.60;100.00
11085;BME280;5596;46.826;8.650;2023-05-25T09:05:48;96460.81;;;14.71;100.00
11085;BME280;5596;46.826;8.650;2023-05-25T09:08:16;96457.66;;;14.80;100.00
11085;BME280;5596;46.826;8.650;2023-05-25T09:10:42;96458.75;;;14.84;100.00
11085;BME280;5596;46.826;8.650;2023-05-25T09:13:09;96463.28;;;15.00;100.00
11085;BME280;5596;46.826;8.650;2023-05-25T09:15:36;96476.38;;;15.03;100.00
11085;BME280;5596;46.826;8.650;2023-05-25T09:18:04;96478.41;;;15.12;100.00
11085;BME280;5596;46.826;8.650;2023-05-25T09:20:32;96482.34;;;15.27;100.00
11085;BME280;5596;46.826;8.650;2023-05-25T09:22:58;96478.31;;;15.29;100.00
11085;BME280;5596;46.826;8.650;2023-05-25T09:25:27;96481.63;;;15.36;100.00
11085;BME280;5596;46.826;8.650;2023-05-25T09:27:56;96481.94;;;15.67;100.00
11085;BME280;5596;46.826;8.650;2023-05-25T09:30:23;96488.91;;;15.84;100.00
11085;BME280;5596;46.826;8.650;2023-05-25T09:32:52;96496.56;;;15.87;100.00
11085;BME280;5596;46.826;8.650;2023-05-25T09:35:19;96490.38;;;15.97;100.00
11085;BME280;5596;46.826;8.650;2023-05-25T09:37:48;96500.72;;;16.00;100.00
11085;BME280;5596;46.826;8.650;2023-05-25T09:40:19;96502.97;;;16.08;100.00
11085;BME280;5596;46.826;8.650;2023-05-25T09:42:46;96504.50;;;16.31;100.00
11085;BME280;5596;46.826;8.650;2023-05-25T09:45:14;96503.63;;;16.68;100.00
11085;BME280;5596;46.826;8.650;2023-05-25T09:47:41;96503.22;;;16.96;100.00
11085;BME280;5596;46.826;8.650;2023-05-25T09:50:08;96506.22;;;16.89;100.00
11085;BME280;5596;46.826;8.650;2023-05-25T09:52:37;96511.94;;;16.88;100.00
11085;BME280;5596;46.826;8.650;2023-05-25T09:55:08;96501.84;;;16.83;100.00
11085;BME280;5596;46.826;8.650;2023-05-25T09:57:37;96499.41;;;16.97;100.00
11085;BME280;5596;46.826;8.650;2023-05-25T10:00:04;96505.38;;;16.89;100.00
11085;BME280;5596;46.826;8.650;2023-05-25T10:02:37;96492.06;;;17.02;100.00
11085;BME280;5596;46.826;8.650;2023-05-25T10:05:04;96481.91;;;16.83;100.00
11085;BME280;5596;46.826;8.650;2023-05-25T10:07:31;96489.59;;;16.91;100.00
11085;BME280;5596;46.826;8.650;2023-05-25T10:09:58;96487.50;;;17.23;100.00
11085;BME280;5596;46.826;8.650;2023-05-25T10:12:30;96495.75;;;17.54;100.00
11085;BME280;5596;46.826;8.650;2023-05-25T10:14:58;96503.75;;;17.75;100.00
11085;BME280;5596;46.826;8.650;2023-05-25T10:17:26;96504.84;;;17.85;100.00
11085;BME280;5596;46.826;8.650;2023-05-25T10:19:56;96505.38;;;17.97;100.00
11085;BME280;5596;46.826;8.650;2023-05-25T10:22:24;96508.09;;;18.12;100.00
11085;BME280;5596;46.826;8.650;2023-05-25T10:24:53;96508.63;;;18.29;100.00
11085;BME280;5596;46.826;8.650;2023-05-25T10:27:22;96513.84;;;18.21;100.00
11085;BME280;5596;46.826;8.650;2023-05-25T10:29:52;96505.38;;;18.07;100.00
11085;BME280;5596;46.826;8.650;2023-05-25T10:32:20;96520.16;;;17.86;100.00
11085;BME280;5596;46.826;8.650;2023-05-25T10:34:48;96517.13;;;17.77;100.00
11085;BME280;5596;46.826;8.650;2023-05-25T10:37:16;96523.94;;;17.80;100.00
11085;BME280;5596;46.826;8.650;2023-05-25T10:39:43;96524.22;;;17.73;100.00
11085;BME280;5596;46.826;8.650;2023-05-25T10:42:12;96536.25;;;17.82;100.00
11085;BME280;5596;46.826;8.650;2023-05-25T10:44:39;96534.63;;;17.91;100.00
11085;BME280;5596;46.826;8.650;2023-05-25T10:47:12;96555.91;;;17.89;100.00
11085;BME280;5596;46.826;8.650;2023-05-25T10:49:50;96552.91;;;18.06;100.00
11085;BME280;5596;46.826;8.650;2023-05-25T10:52:17;96560.28;;;17.80;100.00
11085;BME280;5596;46.826;8.650;2023-05-25T10:54:45;96557.25;;;17.71;100.00
11085;BME280;5596;46.826;8.650;2023-05-25T10:57:16;96551.81;;;17.82;100.00
11085;BME280;5596;46.826;8.650;2023-05-25T10:59:47;96564.38;;;17.77;100.00
11085;BME280;5596;46.826;8.650;2023-05-25T11:02:16;96557.28;;;17.82;100.00
11085;BME280;5596;46.826;8.650;2023-05-25T11:04:47;96565.09;;;17.53;100.00
11085;BME280;5596;46.826;8.650;2023-05-25T11:07:14;96566.47;;;17.55;100.00
11085;BME280;5596;46.826;8.650;2023-05-25T11:09:43;96572.59;;;17.93;100.00
11085;BME280;5596;46.826;8.650;2023-05-25T11:12:19;96576.44;;;18.07;100.00
11085;BME280;5596;46.826;8.650;2023-05-25T11:15:08;96575.00;;;17.79;100.00
11085;BME280;5596;46.826;8.650;2023-05-25T11:20:28;96568.19;;;17.66;100.00
11085;BME280;5596;46.826;8.650;2023-05-25T11:22:56;96570.63;;;17.78;100.00
11085;BME280;5596;46.826;8.650;2023-05-25T11:25:37;96582.41;;;17.84;100.00
11085;BME280;5596;46.826;8.650;2023-05-25T11:28:05;96570.09;;;17.81;100.00
11085;BME280;5596;46.826;8.650;2023-05-25T11:30:32;96572.34;;;18.20;100.00
11085;BME280;5596;46.826;8.650;2023-05-25T11:33:00;96576.44;;;18.32;100.00
11085;BME280;5596;46.826;8.650;2023-05-25T11:35:27;96579.44;;;18.21;100.00
11085;BME280;5596;46.826;8.650;2023-05-25T11:37:56;96579.97;;;18.12;100.00
11085;BME280;5596;46.826;8.650;2023-05-25T11:40:27;96579.16;;;18.07;100.00
11085;BME280;5596;46.826;8.650;2023-05-25T11:42:55;96585.44;;;17.97;100.00
11085;BME280;5596;46.826;8.650;2023-05-25T11:45:22;96584.88;;;17.90;100.00
11085;BME280;5596;46.826;8.650;2023-05-25T11:47:50;96586.50;;;17.96;100.00
11085;BME280;5596;46.826;8.650;2023-05-25T11:50:17;96583.22;;;17.89;100.00
11085;BME280;5596;46.826;8.650;2023-05-25T11:52:44;96583.78;;;17.96;100.00
11085;BME280;5596;46.826;8.650;2023-05-25T11:55:12;96581.63;;;18.19;100.00
11085;BME280;5596;46.826;8.650;2023-05-25T11:57:40;96581.09;;;18.52;100.00
11085;BME280;5596;46.826;8.650;2023-05-25T12:00:07;96580.25;;;18.72;100.00
11085;BME280;5596;46.826;8.650;2023-05-25T12:02:38;96585.16;;;18.95;97.15
11085;BME280;5596;46.826;8.650;2023-05-25T12:05:06;96577.13;;;19.19;97.48
11085;BME280;5596;46.826;8.650;2023-05-25T12:07:33;96575.66;;;19.47;96.63
11085;BME280;5596;46.826;8.650;2023-05-25T12:10:04;96567.09;;;19.63;93.40
11085;BME280;5596;46.826;8.650;2023-05-25T12:12:38;96569.84;;;19.58;92.98
11085;BME280;5596;46.826;8.650;2023-05-25T12:15:06;96566.38;;;19.38;95.70
11085;BME280;5596;46.826;8.650;2023-05-25T12:17:33;96554.19;;;19.69;93.42
11085;BME280;5596;46.826;8.650;2023-05-25T12:19:59;96561.97;;;19.96;92.07
11085;BME280;5596;46.826;8.650;2023-05-25T12:22:26;96557.47;;;20.10;94.27
11085;BME280;5596;46.826;8.650;2023-05-25T12:24:53;96567.22;;;20.26;90.88
11085;BME280;5596;46.826;8.650;2023-05-25T12:27:20;96559.41;;;20.49;87.98
11085;BME280;5596;46.826;8.650;2023-05-25T12:29:48;96557.78;;;20.43;91.75
11085;BME280;5596;46.826;8.650;2023-05-25T12:32:17;96550.81;;;20.21;90.60
11085;BME280;5596;46.826;8.650;2023-05-25T12:34:44;96563.06;;;20.34;90.51
11085;BME280;5596;46.826;8.650;2023-05-25T12:37:17;96567.75;;;20.28;89.64
11085;BME280;5596;46.826;8.650;2023-05-25T12:39:45;96553.75;;;20.30;89.06
11085;BME280;5596;46.826;8.650;2023-05-25T12:42:13;96569.72;;;20.23;91.16
11085;BME280;5596;46.826;8.650;2023-05-25T12:44:41;96563.81;;;20.45;90.96
11085;BME280;5596;46.826;8.650;2023-05-25T12:47:10;96568.84;;;20.32;93.09
11085;BME280;5596;46.826;8.650;2023-05-25T12:49:37;96568.91;;;20.22;92.70
11085;BME280;5596;46.826;8.650;2023-05-25T12:52:04;96560.94;;;19.87;94.06
11085;BME280;5596;46.826;8.650;2023-05-25T12:54:32;96558.13;;;19.97;93.20
11085;BME280;5596;46.826;8.650;2023-05-25T12:56:59;96571.22;;;20.05;92.83
11085;BME280;5596;46.826;8.650;2023-05-25T12:59:28;96568.84;;;20.32;92.00
11085;BME280;5596;46.826;8.650;2023-05-25T13:01:55;96569.91;;;20.36;90.02
11085;BME280;5596;46.826;8.650;2023-05-25T13:04:23;96556.34;;;20.50;91.54
11085;BME280;5596;46.826;8.650;2023-05-25T13:06:50;96566.06;;;20.37;90.86